Pendleton, OR (97801)

4:09 AM PST on February 21, 2017 (GMT -0800)
Fire and Rescue, Court Street | | Change Station

Elev 1066 ft 45.67 °N, 118.80 °W | Updated 6 seconds ago

Light Rain
Light Rain
40.7 °F
Feels Like 41 °F
N
0.0
Wind Variable Wind from SW
Gusts 4.0 mph

Today
High -- | Low -- °F
--% Chance of Precip.
Yesterday
High -- | Low -- °F
Precip. -- in
Pressure 29.60 in
Visibility 8.0 miles
Clouds Few 2100 ft
Mostly Cloudy 3000 ft
Overcast 4500 ft
Windchill 41 °F
Dew Point 35 °F
Humidity 79%
Rainfall 0.18 in
Snow Depth Not available.
6:46 AM 5:31 PM
Waning Crescent, 26% visible
METAR KPDT 211153Z AUTO 17004KT 8SM -RA FEW021 BKN030 OVC045 04/04 A2961 RMK AO2 SLP024 P0006 60015 70021 T00440039 10061 20044 56011 TSNO $
Pressure 29.60 in
Visibility 8.0 miles
Clouds Few 2100 ft
Mostly Cloudy 3000 ft
Overcast 4500 ft
Windchill 41 °F
Dew Point 35 °F
Humidity 79%
Rainfall 0.18 in
Snow Depth Not available.
6:46 AM 5:31 PM
Waning Crescent, 26% visible
METAR KPDT 211153Z AUTO 17004KT 8SM -RA FEW021 BKN030 OVC045 04/04 A2961 RMK AO2 SLP024 P0006 60015 70021 T00440039 10061 20044 56011 TSNO $

Get Your Daily Forecast Email!

Thanks for signing up!

Be on the lookout for a verification email in your inbox.

You'll start receiving the daily forecast at 8 AM.

×

10-Day Weather Forecast

Almanac

Astronomy

Feb. 21, 2017 Rise Set
Actual Time
Civil Twilight
Nautical Twilight
Astronomical Twilight
Moon
Length of Visible Light
Length of Day
Tomorrow will be .
, % of the Moon is Illuminated

Today's Extremes

State Highs State Lows

Community

WunderPhotos

Upload Photos

1,962,540 photos uploaded!

WunderBlog® & News

Nearby

Air Quality

  Air Quality AQ Index Pollutant
Not available.

Snow Depth

Station Depth Elevation

Earthquake Activity

City Distance Mag. Time & Date
Minimum magnitude displayed is 2.5.

Coastal Water Temperatures

Place Temperature

Stations

Nearby Weather Stations

Station Location Temp. Windchill Dew Point Humidity Wind Precip. Elev Updated Type
                   

Watches & Warnings

There are currently no watches in effect.